createdAt,value
2018-03-22T00:01:06.279Z,1021.16
2018-03-22T00:02:33.354Z,1021.09
2018-03-22T00:04:00.579Z,1021.08
2018-03-22T00:05:27.888Z,1021.06
2018-03-22T00:06:55.089Z,1021.05
2018-03-22T00:08:22.167Z,1021.03
2018-03-22T00:09:49.405Z,1021.01
2018-03-22T00:11:16.467Z,1021.01
2018-03-22T00:12:43.586Z,1020.95
2018-03-22T00:14:10.762Z,1020.92
2018-03-22T00:15:37.814Z,1020.87
2018-03-22T00:17:05.006Z,1020.82
2018-03-22T00:18:32.260Z,1020.79
2018-03-22T00:19:59.510Z,1020.74
2018-03-22T00:21:26.667Z,1020.75
2018-03-22T00:22:53.850Z,1020.69
2018-03-22T00:24:21.137Z,1020.62
2018-03-22T00:25:48.262Z,1020.56
2018-03-22T00:27:15.541Z,1020.50
2018-03-22T00:28:42.651Z,1020.47
2018-03-22T00:30:09.751Z,1020.43
2018-03-22T00:31:37.094Z,1020.41
2018-03-22T00:33:04.176Z,1020.38
2018-03-22T00:34:31.408Z,1020.35
2018-03-22T00:35:58.451Z,1020.32
2018-03-22T00:37:25.452Z,1020.30
2018-03-22T00:38:52.668Z,1020.25
2018-03-22T00:40:19.928Z,1020.22
2018-03-22T00:41:46.920Z,1020.17
2018-03-22T00:43:14.110Z,1020.15
2018-03-22T00:44:41.356Z,1020.13
2018-03-22T00:46:08.421Z,1020.11
2018-03-22T00:47:35.385Z,1020.08
2018-03-22T00:49:02.628Z,1020.03
2018-03-22T00:50:29.561Z,1019.98
2018-03-22T00:51:56.804Z,1019.92
2018-03-22T00:53:23.928Z,1019.88
2018-03-22T00:54:51.183Z,1019.86
2018-03-22T00:56:18.427Z,1019.81
2018-03-22T00:57:45.627Z,1019.79
2018-03-22T00:59:12.766Z,1019.77
2018-03-22T01:00:39.928Z,1019.75
2018-03-22T01:02:07.151Z,1019.71
2018-03-22T01:03:34.225Z,1019.68
2018-03-22T01:05:01.309Z,1019.61
2018-03-22T01:06:28.635Z,1019.57
2018-03-22T01:07:55.733Z,1019.49
2018-03-22T01:09:22.990Z,1019.49
2018-03-22T01:10:50.184Z,1019.49
2018-03-22T01:12:16.969Z,1019.51
2018-03-22T01:13:44.100Z,1019.52
2018-03-22T01:15:11.260Z,1019.48
2018-03-22T01:16:38.115Z,1019.47
2018-03-22T01:18:05.126Z,1019.42
2018-03-22T01:19:32.460Z,1019.40
2018-03-22T01:20:59.673Z,1019.35
2018-03-22T01:22:26.355Z,1019.31
2018-03-22T01:23:53.307Z,1019.25
2018-03-22T01:25:20.498Z,1019.18
2018-03-22T01:26:47.613Z,1019.12
2018-03-22T01:28:14.825Z,1019.08
2018-03-22T01:29:42.005Z,1019.08
2018-03-22T01:31:09.080Z,1019.06
2018-03-22T01:32:36.471Z,1018.97
2018-03-22T01:34:03.382Z,1018.87
2018-03-22T01:35:30.457Z,1018.79
2018-03-22T01:36:57.411Z,1018.71
2018-03-22T01:38:24.481Z,1018.67
2018-03-22T01:39:51.287Z,1018.63
2018-03-22T01:41:18.565Z,1018.61
2018-03-22T01:42:45.697Z,1018.57
2018-03-22T01:44:12.739Z,1018.55
2018-03-22T01:45:39.807Z,1018.53
2018-03-22T01:47:07.104Z,1018.49
2018-03-22T01:48:34.225Z,1018.46
2018-03-22T01:50:01.356Z,1018.45
2018-03-22T01:51:28.345Z,1018.42
2018-03-22T01:52:55.572Z,1018.42
2018-03-22T01:54:22.876Z,1018.40
2018-03-22T01:55:49.934Z,1018.40
2018-03-22T01:57:17.103Z,1018.41
2018-03-22T01:58:44.260Z,1018.40
2018-03-22T02:00:11.439Z,1018.37
2018-03-22T02:01:38.317Z,1018.32
2018-03-22T02:03:05.393Z,1018.29
2018-03-22T02:04:32.515Z,1018.26
2018-03-22T02:05:59.680Z,1018.23
2018-03-22T02:07:26.862Z,1018.19
2018-03-22T02:08:53.904Z,1018.16
2018-03-22T02:10:21.040Z,1018.12
2018-03-22T02:11:48.278Z,1018.12
2018-03-22T02:13:15.307Z,1018.08
2018-03-22T02:14:42.495Z,1018.01
2018-03-22T02:16:09.345Z,1017.96
2018-03-22T02:17:36.124Z,1017.87
2018-03-22T02:19:03.258Z,1017.82
2018-03-22T02:20:30.459Z,1017.79
2018-03-22T02:21:57.722Z,1017.78
2018-03-22T02:23:24.965Z,1017.74
2018-03-22T02:24:52.178Z,1017.68
2018-03-22T02:26:19.282Z,1017.63
2018-03-22T02:27:46.497Z,1017.59
2018-03-22T02:29:13.306Z,1017.55
2018-03-22T02:30:40.474Z,1017.55
2018-03-22T02:32:07.930Z,1017.54
2018-03-22T02:33:35.206Z,1017.52
2018-03-22T02:35:01.992Z,1017.51
2018-03-22T02:36:29.046Z,1017.49
2018-03-22T02:37:56.268Z,1017.46
2018-03-22T02:39:23.202Z,1017.43
2018-03-22T02:40:50.612Z,1017.40
2018-03-22T02:42:17.478Z,1017.39
2018-03-22T02:43:44.906Z,1017.36
2018-03-22T02:45:12.147Z,1017.29
2018-03-22T02:46:39.355Z,1017.23
2018-03-22T02:48:06.547Z,1017.17
2018-03-22T02:49:33.742Z,1017.15
2018-03-22T02:51:00.734Z,1017.12
2018-03-22T02:52:27.618Z,1017.07
2018-03-22T02:53:54.711Z,1017.03
2018-03-22T02:55:21.744Z,1017.02
2018-03-22T02:56:48.539Z,1017.00
2018-03-22T02:58:15.581Z,1017.00
2018-03-22T02:59:42.784Z,1016.98
2018-03-22T03:01:09.664Z,1016.92
2018-03-22T03:02:36.821Z,1016.87
2018-03-22T03:04:03.977Z,1016.82
2018-03-22T03:05:31.271Z,1016.81
2018-03-22T03:06:58.066Z,1016.79
2018-03-22T03:08:25.291Z,1016.76
2018-03-22T03:09:52.618Z,1016.71
2018-03-22T03:11:19.874Z,1016.65
2018-03-22T03:12:46.924Z,1016.64
2018-03-22T03:14:13.886Z,1016.62
2018-03-22T03:15:41.284Z,1016.59
2018-03-22T03:17:08.266Z,1016.58
2018-03-22T03:18:35.127Z,1016.49
2018-03-22T03:20:02.413Z,1016.47
2018-03-22T03:21:29.819Z,1016.44
2018-03-22T03:22:56.834Z,1016.41
2018-03-22T03:24:23.917Z,1016.38
2018-03-22T03:25:51.068Z,1016.33
2018-03-22T03:27:18.288Z,1016.27
2018-03-22T03:28:45.156Z,1016.21
2018-03-22T03:30:12.116Z,1016.15
2018-03-22T03:31:39.110Z,1016.12
2018-03-22T03:33:06.389Z,1016.08
2018-03-22T03:34:33.409Z,1016.06
2018-03-22T03:36:00.733Z,1016.01
2018-03-22T03:37:27.441Z,1015.97
2018-03-22T03:38:54.538Z,1015.96
2018-03-22T03:40:21.663Z,1015.91
2018-03-22T03:41:48.682Z,1015.88
2018-03-22T03:43:15.673Z,1015.84
2018-03-22T03:44:42.790Z,1015.83
2018-03-22T03:46:09.761Z,1015.79
2018-03-22T03:47:36.766Z,1015.78
2018-03-22T03:49:03.942Z,1015.74
2018-03-22T03:50:30.913Z,1015.68
2018-03-22T03:51:58.181Z,1015.62
2018-03-22T03:53:25.457Z,1015.59
2018-03-22T03:54:52.705Z,1015.50
2018-03-22T03:56:19.663Z,1015.43
2018-03-22T03:57:46.989Z,1015.41
2018-03-22T03:59:13.759Z,1015.39
2018-03-22T04:00:40.666Z,1015.31
2018-03-22T04:02:07.905Z,1015.35
2018-03-22T04:03:34.956Z,1015.29
2018-03-22T04:05:02.104Z,1015.26
2018-03-22T04:06:29.315Z,1015.16
2018-03-22T04:07:56.569Z,1015.11
2018-03-22T04:09:23.786Z,1015.11
2018-03-22T04:10:51.044Z,1015.11
2018-03-22T04:12:18.024Z,1015.05
2018-03-22T04:13:45.222Z,1015.00
2018-03-22T04:15:12.325Z,1014.94
2018-03-22T04:16:39.493Z,1014.87
2018-03-22T04:18:06.752Z,1014.88
2018-03-22T04:19:33.924Z,1014.86
2018-03-22T04:21:01.175Z,1014.82
2018-03-22T04:22:28.332Z,1014.79
2018-03-22T04:23:55.590Z,1014.76
2018-03-22T04:25:22.669Z,1014.72
2018-03-22T04:26:49.847Z,1014.71
2018-03-22T04:28:16.932Z,1014.69
2018-03-22T04:29:44.199Z,1014.66
2018-03-22T04:31:10.996Z,1014.61
2018-03-22T04:32:37.875Z,1014.64
2018-03-22T04:34:04.883Z,1014.61
2018-03-22T04:35:32.124Z,1014.60
2018-03-22T04:36:59.140Z,1014.56
2018-03-22T04:38:26.302Z,1014.57
2018-03-22T04:39:53.470Z,1014.46
2018-03-22T04:41:20.640Z,1014.45
2018-03-22T04:42:47.744Z,1014.43
2018-03-22T04:44:15.001Z,1014.42
2018-03-22T04:45:42.182Z,1014.42
2018-03-22T04:47:09.467Z,1014.36
2018-03-22T04:48:36.711Z,1014.37
2018-03-22T04:50:03.775Z,1014.43
2018-03-22T04:51:30.900Z,1014.38
2018-03-22T04:52:58.054Z,1014.31
2018-03-22T04:54:25.222Z,1014.27
2018-03-22T04:55:52.440Z,1014.29
2018-03-22T04:57:19.575Z,1014.25
2018-03-22T04:58:46.523Z,1014.19
2018-03-22T05:00:13.622Z,1014.16
2018-03-22T05:01:40.768Z,1014.08
2018-03-22T05:03:07.632Z,1014.10
2018-03-22T05:04:34.855Z,1014.08
2018-03-22T05:06:01.876Z,1014.06
2018-03-22T05:07:29.125Z,1014.03
2018-03-22T05:08:56.194Z,1013.96
2018-03-22T05:10:23.399Z,1013.95
2018-03-22T05:11:50.588Z,1013.90
2018-03-22T05:13:17.614Z,1013.84
2018-03-22T05:14:44.596Z,1013.87
2018-03-22T05:16:11.683Z,1013.85
2018-03-22T05:17:38.860Z,1013.82
2018-03-22T05:19:06.090Z,1013.78
2018-03-22T05:20:33.305Z,1013.74
2018-03-22T05:22:00.665Z,1013.75
2018-03-22T05:23:27.671Z,1013.70
2018-03-22T05:24:54.874Z,1013.66
2018-03-22T05:26:22.076Z,1013.66
2018-03-22T05:27:49.280Z,1013.65
2018-03-22T05:29:16.407Z,1013.60
2018-03-22T05:30:43.579Z,1013.52
2018-03-22T05:32:10.684Z,1013.51
2018-03-22T05:33:41.045Z,1013.47
2018-03-22T05:35:05.249Z,1013.43
2018-03-22T05:36:32.489Z,1013.41
2018-03-22T05:37:59.784Z,1013.38
2018-03-22T05:39:26.912Z,1013.36
2018-03-22T05:40:54.032Z,1013.30
2018-03-22T05:42:21.190Z,1013.29
2018-03-22T05:43:48.271Z,1013.26
2018-03-22T05:45:15.223Z,1013.23
2018-03-22T05:46:42.436Z,1013.16
2018-03-22T05:48:09.431Z,1013.14
2018-03-22T05:49:36.672Z,1013.06
2018-03-22T05:51:03.820Z,1013.00
2018-03-22T05:52:30.946Z,1013.01
2018-03-22T05:53:58.196Z,1013.04
2018-03-22T05:55:25.206Z,1013.00
2018-03-22T05:56:52.379Z,1013.00
2018-03-22T05:58:19.393Z,1012.96
2018-03-22T05:59:46.499Z,1013.00
2018-03-22T06:01:13.652Z,1012.97
2018-03-22T06:02:40.434Z,1012.89
2018-03-22T06:04:07.464Z,1012.87
2018-03-22T06:05:34.454Z,1012.80
2018-03-22T06:07:01.765Z,1012.76
2018-03-22T06:08:28.875Z,1012.75
2018-03-22T06:09:55.982Z,1012.73
2018-03-22T06:11:23.259Z,1012.68
2018-03-22T06:12:50.417Z,1012.61
2018-03-22T06:14:17.566Z,1012.58
2018-03-22T06:15:44.712Z,1012.53
2018-03-22T06:17:11.676Z,1012.51
2018-03-22T06:18:38.678Z,1012.46
2018-03-22T06:20:05.873Z,1012.46
2018-03-22T06:21:32.759Z,1012.44
2018-03-22T06:22:59.851Z,1012.40
2018-03-22T06:24:26.883Z,1012.40
2018-03-22T06:25:54.286Z,1012.35
2018-03-22T06:27:21.457Z,1012.34
2018-03-22T06:28:48.501Z,1012.32
2018-03-22T06:30:15.712Z,1012.29
2018-03-22T06:31:42.771Z,1012.28
2018-03-22T06:33:09.891Z,1012.29
2018-03-22T06:34:37.116Z,1012.22
2018-03-22T06:36:04.248Z,1012.11
2018-03-22T06:37:30.926Z,1012.13
2018-03-22T06:38:58.089Z,1012.08
2018-03-22T06:40:25.172Z,1012.05
2018-03-22T06:41:52.259Z,1012.06
2018-03-22T06:43:19.548Z,1012.04
2018-03-22T06:44:46.340Z,1012.02
2018-03-22T06:46:13.394Z,1012.01
2018-03-22T06:47:40.613Z,1012.00
2018-03-22T06:49:07.701Z,1011.97
2018-03-22T06:50:34.357Z,1011.92
2018-03-22T06:52:01.464Z,1011.85
2018-03-22T06:53:28.571Z,1011.86
2018-03-22T06:54:55.830Z,1011.88
2018-03-22T06:56:22.625Z,1011.89
2018-03-22T06:57:50.002Z,1011.88
2018-03-22T06:59:16.748Z,1011.78
2018-03-22T07:00:43.627Z,1011.75
2018-03-22T07:02:10.626Z,1011.75
2018-03-22T07:03:38.139Z,1011.71
2018-03-22T07:05:05.087Z,1011.70
2018-03-22T07:06:32.357Z,1011.70
2018-03-22T07:07:59.336Z,1011.66
2018-03-22T07:09:26.246Z,1011.64
2018-03-22T07:10:53.416Z,1011.61
2018-03-22T07:12:20.714Z,1011.58
2018-03-22T07:13:47.771Z,1011.55
2018-03-22T07:15:14.942Z,1011.51
2018-03-22T07:16:41.906Z,1011.50
2018-03-22T07:18:09.056Z,1011.52
2018-03-22T07:19:36.199Z,1011.51
2018-03-22T07:21:03.449Z,1011.47
2018-03-22T07:22:30.407Z,1011.44
2018-03-22T07:23:57.659Z,1011.47
2018-03-22T07:25:24.762Z,1011.47
2018-03-22T07:26:51.980Z,1011.50
2018-03-22T07:28:18.997Z,1011.49
2018-03-22T07:29:46.115Z,1011.46
2018-03-22T07:31:13.237Z,1011.46
2018-03-22T07:32:40.283Z,1011.45
2018-03-22T07:34:07.439Z,1011.47
2018-03-22T07:35:34.716Z,1011.46
2018-03-22T07:37:01.766Z,1011.41
2018-03-22T07:38:28.899Z,1011.38
2018-03-22T07:39:56.088Z,1011.41
2018-03-22T07:41:23.301Z,1011.40
2018-03-22T07:42:50.529Z,1011.36
2018-03-22T07:44:17.597Z,1011.35
2018-03-22T07:45:44.802Z,1011.35
2018-03-22T07:47:11.840Z,1011.28
2018-03-22T07:48:38.848Z,1011.26
2018-03-22T07:50:06.088Z,1011.24
2018-03-22T07:51:33.380Z,1011.27
2018-03-22T07:53:00.492Z,1011.26
2018-03-22T07:54:27.833Z,1011.25
2018-03-22T07:55:54.815Z,1011.27
2018-03-22T07:57:21.647Z,1011.27
2018-03-22T07:58:48.848Z,1011.25
2018-03-22T08:00:16.137Z,1011.28
2018-03-22T08:01:43.023Z,1011.25
2018-03-22T08:03:09.783Z,1011.29
2018-03-22T08:04:36.967Z,1011.29
2018-03-22T08:06:04.076Z,1011.28
2018-03-22T08:07:30.868Z,1011.22
2018-03-22T08:08:57.982Z,1011.23
2018-03-22T08:10:25.616Z,1011.20
2018-03-22T08:11:52.798Z,1011.16
2018-03-22T08:13:19.668Z,1011.14
2018-03-22T08:14:46.840Z,1011.09
2018-03-22T08:16:13.907Z,1011.07
2018-03-22T08:17:41.070Z,1011.02
2018-03-22T08:19:07.828Z,1011.01
2018-03-22T08:20:34.705Z,1011.05
2018-03-22T08:22:01.864Z,1011.09
2018-03-22T08:23:29.128Z,1011.10
2018-03-22T08:24:56.263Z,1011.07
2018-03-22T08:26:23.455Z,1011.03
2018-03-22T08:27:50.699Z,1010.99
2018-03-22T08:29:17.735Z,1010.98
2018-03-22T08:30:44.943Z,1011.00
2018-03-22T08:32:12.388Z,1011.02
2018-03-22T08:33:39.445Z,1011.03
2018-03-22T08:35:06.697Z,1011.09
2018-03-22T08:36:33.725Z,1011.07
2018-03-22T08:38:01.046Z,1011.10
2018-03-22T08:39:28.286Z,1011.12
2018-03-22T08:40:55.686Z,1011.10
2018-03-22T08:42:23.016Z,1011.11
2018-03-22T08:43:49.863Z,1011.05
2018-03-22T08:45:17.147Z,1011.05
2018-03-22T08:46:44.299Z,1011.07
2018-03-22T08:48:11.513Z,1011.05
2018-03-22T08:49:38.468Z,1011.08
2018-03-22T08:51:05.636Z,1011.03
2018-03-22T08:52:35.797Z,1011.05
2018-03-22T08:53:59.956Z,1011.02
2018-03-22T08:55:27.122Z,1011.01
2018-03-22T08:56:54.508Z,1011.03
2018-03-22T08:58:21.630Z,1011.03
2018-03-22T08:59:48.614Z,1011.05
2018-03-22T09:01:15.902Z,1011.02
2018-03-22T09:02:43.036Z,1011.04
2018-03-22T09:04:10.260Z,1011.01
2018-03-22T09:05:37.451Z,1010.97
2018-03-22T09:07:04.405Z,1010.95
2018-03-22T09:08:31.567Z,1010.96
2018-03-22T09:09:58.765Z,1010.93
2018-03-22T09:11:25.827Z,1010.92
2018-03-22T09:12:53.007Z,1010.92
2018-03-22T09:14:19.955Z,1010.94
2018-03-22T09:15:47.153Z,1010.91
2018-03-22T09:17:14.200Z,1010.95
2018-03-22T09:18:41.284Z,1010.93
2018-03-22T09:20:08.075Z,1010.93
2018-03-22T09:21:35.293Z,1010.90
2018-03-22T09:23:02.497Z,1010.88
2018-03-22T09:24:29.651Z,1010.87
2018-03-22T09:25:56.849Z,1010.86
2018-03-22T09:27:24.028Z,1010.83
2018-03-22T09:28:51.274Z,1010.83
2018-03-22T09:30:18.560Z,1010.80
2018-03-22T09:31:45.565Z,1010.79
2018-03-22T09:33:12.701Z,1010.80
2018-03-22T09:34:39.839Z,1010.79
2018-03-22T09:36:07.138Z,1010.75
2018-03-22T09:37:34.243Z,1010.71
2018-03-22T09:39:01.492Z,1010.64
2018-03-22T09:40:28.468Z,1010.63
2018-03-22T09:41:55.654Z,1010.65
2018-03-22T09:43:22.992Z,1010.68
2018-03-22T09:44:50.196Z,1010.70
2018-03-22T09:46:17.437Z,1010.68
2018-03-22T09:47:44.736Z,1010.67
2018-03-22T09:49:11.985Z,1010.71
2018-03-22T09:50:39.115Z,1010.74
2018-03-22T09:52:06.320Z,1010.71
2018-03-22T09:53:33.549Z,1010.71
2018-03-22T09:55:00.739Z,1010.72
2018-03-22T09:56:27.961Z,1010.73
2018-03-22T09:57:55.228Z,1010.73
2018-03-22T09:59:22.440Z,1010.72
2018-03-22T10:00:49.633Z,1010.73
2018-03-22T10:02:16.832Z,1010.72
2018-03-22T10:03:43.868Z,1010.75
2018-03-22T10:05:11.048Z,1010.76
2018-03-22T10:06:37.777Z,1010.77
2018-03-22T10:08:04.966Z,1010.80
2018-03-22T10:09:32.055Z,1010.79
2018-03-22T10:10:59.427Z,1010.76
2018-03-22T10:12:26.789Z,1010.75
2018-03-22T10:13:53.984Z,1010.74
2018-03-22T10:15:21.107Z,1010.72
2018-03-22T10:16:48.227Z,1010.68
2018-03-22T10:18:15.349Z,1010.70
2018-03-22T10:19:42.597Z,1010.69
2018-03-22T10:21:09.745Z,1010.69
2018-03-22T10:22:36.985Z,1010.70
2018-03-22T10:24:04.266Z,1010.72
2018-03-22T10:25:31.436Z,1010.72
2018-03-22T10:26:58.819Z,1010.74
2018-03-22T10:28:25.921Z,1010.74
2018-03-22T10:29:53.203Z,1010.67
2018-03-22T10:31:20.475Z,1010.70
2018-03-22T10:32:47.788Z,1010.67
2018-03-22T10:34:14.726Z,1010.69
2018-03-22T10:35:41.856Z,1010.70
2018-03-22T10:37:08.933Z,1010.70
2018-03-22T10:38:36.211Z,1010.68
2018-03-22T10:40:03.539Z,1010.68
2018-03-22T10:41:30.793Z,1010.65
2018-03-22T10:42:57.944Z,1010.71
2018-03-22T10:44:25.426Z,1010.67
2018-03-22T10:45:52.591Z,1010.68
2018-03-22T10:47:19.919Z,1010.64
2018-03-22T10:48:47.019Z,1010.63
2018-03-22T10:50:14.188Z,1010.64
2018-03-22T10:51:41.267Z,1010.64
2018-03-22T10:53:08.432Z,1010.65
2018-03-22T10:54:35.686Z,1010.62
2018-03-22T10:56:02.997Z,1010.61
2018-03-22T10:57:30.205Z,1010.59
2018-03-22T10:58:57.488Z,1010.57
2018-03-22T11:00:24.491Z,1010.58
2018-03-22T11:01:51.653Z,1010.55
2018-03-22T11:03:18.902Z,1010.55
2018-03-22T11:04:46.240Z,1010.54
2018-03-22T11:06:13.235Z,1010.53
2018-03-22T11:07:40.277Z,1010.53
2018-03-22T11:09:07.545Z,1010.55
2018-03-22T11:10:34.801Z,1010.54
2018-03-22T11:12:02.210Z,1010.55
2018-03-22T11:13:29.441Z,1010.55
2018-03-22T11:14:56.619Z,1010.54
2018-03-22T11:16:23.720Z,1010.53
2018-03-22T11:17:50.959Z,1010.53
2018-03-22T11:19:18.168Z,1010.49
2018-03-22T11:20:45.589Z,1010.50
2018-03-22T11:22:12.610Z,1010.49
2018-03-22T11:23:39.783Z,1010.49
2018-03-22T11:25:07.001Z,1010.49
2018-03-22T11:26:34.282Z,1010.47
2018-03-22T11:28:01.575Z,1010.47
2018-03-22T11:29:28.779Z,1010.48
2018-03-22T11:30:56.184Z,1010.49
2018-03-22T11:32:23.499Z,1010.47
2018-03-22T11:33:50.942Z,1010.49
2018-03-22T11:35:17.985Z,1010.51
2018-03-22T11:36:45.286Z,1010.52
2018-03-22T11:38:12.508Z,1010.50
2018-03-22T11:39:39.620Z,1010.53
2018-03-22T11:41:06.792Z,1010.53
2018-03-22T11:42:34.049Z,1010.54
2018-03-22T11:44:01.150Z,1010.53
2018-03-22T11:45:28.584Z,1010.54
2018-03-22T11:46:55.883Z,1010.52
2018-03-22T11:48:23.256Z,1010.51
2018-03-22T11:49:50.391Z,1010.51
2018-03-22T11:51:17.644Z,1010.53
2018-03-22T11:52:44.807Z,1010.53
2018-03-22T11:54:12.050Z,1010.53
2018-03-22T11:55:39.197Z,1010.53
2018-03-22T11:57:06.256Z,1010.51
2018-03-22T11:58:33.622Z,1010.48
2018-03-22T12:00:03.788Z,1010.45
2018-03-22T12:01:27.942Z,1010.44
2018-03-22T12:02:55.262Z,1010.45
2018-03-22T12:04:22.461Z,1010.47
2018-03-22T12:05:49.588Z,1010.47
2018-03-22T12:07:16.819Z,1010.49
2018-03-22T12:08:43.922Z,1010.50
2018-03-22T12:10:10.954Z,1010.51
2018-03-22T12:11:37.881Z,1010.50
2018-03-22T12:13:05.129Z,1010.53
2018-03-22T12:14:32.394Z,1010.54
2018-03-22T12:15:59.693Z,1010.56
2018-03-22T12:17:27.060Z,1010.55
2018-03-22T12:18:54.177Z,1010.58
2018-03-22T12:20:21.515Z,1010.56
2018-03-22T12:21:48.663Z,1010.58
2018-03-22T12:23:15.892Z,1010.61
2018-03-22T12:24:43.081Z,1010.61
2018-03-22T12:26:10.328Z,1010.61
2018-03-22T12:27:37.619Z,1010.58
2018-03-22T12:29:04.912Z,1010.57
2018-03-22T12:30:32.069Z,1010.54
2018-03-22T12:31:59.426Z,1010.54
2018-03-22T12:33:26.792Z,1010.56
2018-03-22T12:34:54.156Z,1010.61
2018-03-22T12:36:21.495Z,1010.62
2018-03-22T12:37:48.687Z,1010.61
2018-03-22T12:39:15.937Z,1010.66
2018-03-22T12:40:43.232Z,1010.67
2018-03-22T12:42:10.271Z,1010.68
2018-03-22T12:43:37.485Z,1010.69
2018-03-22T12:45:04.687Z,1010.67
2018-03-22T12:46:31.799Z,1010.64
2018-03-22T12:47:58.969Z,1010.67
2018-03-22T12:49:26.456Z,1010.65
2018-03-22T12:50:53.766Z,1010.65
2018-03-22T12:52:20.975Z,1010.64
2018-03-22T12:53:48.228Z,1010.65
2018-03-22T12:55:15.496Z,1010.64
2018-03-22T12:56:42.709Z,1010.66
2018-03-22T12:58:09.780Z,1010.68
2018-03-22T12:59:37.020Z,1010.66
2018-03-22T13:01:04.341Z,1010.67
2018-03-22T13:02:31.478Z,1010.67
2018-03-22T13:03:58.724Z,1010.68
2018-03-22T13:05:25.880Z,1010.72
2018-03-22T13:06:53.089Z,1010.74
2018-03-22T13:08:20.537Z,1010.75
2018-03-22T13:09:47.687Z,1010.74
2018-03-22T13:11:14.866Z,1010.76
2018-03-22T13:12:42.142Z,1010.76
2018-03-22T13:14:09.384Z,1010.75
2018-03-22T13:15:36.664Z,1010.77
2018-03-22T13:17:03.861Z,1010.75
2018-03-22T13:18:31.039Z,1010.77
2018-03-22T13:19:58.367Z,1010.74
2018-03-22T13:21:25.653Z,1010.74
2018-03-22T13:22:52.766Z,1010.73
2018-03-22T13:24:19.891Z,1010.74
2018-03-22T13:25:46.967Z,1010.77
2018-03-22T13:27:14.216Z,1010.76
2018-03-22T13:28:41.394Z,1010.79
2018-03-22T13:30:08.362Z,1010.78
2018-03-22T13:31:35.712Z,1010.79
2018-03-22T13:33:03.116Z,1010.83
2018-03-22T13:34:30.333Z,1010.79
2018-03-22T13:35:57.466Z,1010.78
2018-03-22T13:37:24.789Z,1010.77
2018-03-22T13:38:52.035Z,1010.78
2018-03-22T13:40:19.394Z,1010.78
2018-03-22T13:41:46.573Z,1010.80
2018-03-22T13:43:13.701Z,1010.80
2018-03-22T13:44:40.932Z,1010.81
2018-03-22T13:46:08.074Z,1010.79
2018-03-22T13:47:35.323Z,1010.81
2018-03-22T13:49:02.602Z,1010.79
2018-03-22T13:50:29.835Z,1010.81
2018-03-22T13:51:57.087Z,1010.83
2018-03-22T13:53:24.318Z,1010.85
2018-03-22T13:54:51.707Z,1010.86
2018-03-22T13:56:18.807Z,1010.85
2018-03-22T13:57:45.816Z,1010.88
2018-03-22T13:59:13.140Z,1010.91
2018-03-22T14:00:40.222Z,1010.95
2018-03-22T14:02:07.389Z,1010.95
2018-03-22T14:03:34.757Z,1010.96
2018-03-22T14:05:02.107Z,1011.00
2018-03-22T14:06:29.450Z,1010.99
2018-03-22T14:07:56.795Z,1011.01
2018-03-22T14:09:23.994Z,1011.03
2018-03-22T14:10:51.110Z,1011.04
2018-03-22T14:12:18.302Z,1011.03
2018-03-22T14:13:45.653Z,1011.05
2018-03-22T14:15:12.923Z,1011.06
2018-03-22T14:16:40.095Z,1011.09
2018-03-22T14:18:07.549Z,1011.07
2018-03-22T14:19:34.657Z,1011.10
2018-03-22T14:21:01.871Z,1011.11
2018-03-22T14:22:29.029Z,1011.13
2018-03-22T14:23:56.355Z,1011.12
2018-03-22T14:25:23.766Z,1011.12
2018-03-22T14:26:50.963Z,1011.12
2018-03-22T14:28:18.339Z,1011.11
2018-03-22T14:29:45.435Z,1011.11
2018-03-22T14:31:12.732Z,1011.13
2018-03-22T14:32:39.747Z,1011.13
2018-03-22T14:34:06.955Z,1011.11
2018-03-22T14:35:34.139Z,1011.10
2018-03-22T14:37:01.489Z,1011.10
2018-03-22T14:38:28.796Z,1011.11
2018-03-22T14:39:56.093Z,1011.12
2018-03-22T14:41:23.202Z,1011.14
2018-03-22T14:42:50.137Z,1011.11
2018-03-22T14:44:17.239Z,1011.10
2018-03-22T14:45:44.614Z,1011.08
2018-03-22T14:47:11.788Z,1011.06
2018-03-22T14:48:38.924Z,1011.05
2018-03-22T14:50:06.026Z,1011.05
2018-03-22T14:51:33.302Z,1011.07
2018-03-22T14:53:00.495Z,1011.06
2018-03-22T14:54:27.585Z,1011.10
2018-03-22T14:55:54.939Z,1011.14
2018-03-22T14:57:22.035Z,1011.20
2018-03-22T14:58:49.053Z,1011.19
2018-03-22T15:00:16.320Z,1011.21
2018-03-22T15:01:43.779Z,1011.17
2018-03-22T15:03:10.896Z,1011.21
2018-03-22T15:04:38.254Z,1011.18
2018-03-22T15:06:05.323Z,1011.18
2018-03-22T15:07:32.530Z,1011.15
2018-03-22T15:08:59.676Z,1011.18
2018-03-22T15:10:27.062Z,1011.22
2018-03-22T15:11:54.269Z,1011.25
2018-03-22T15:13:21.162Z,1011.26
2018-03-22T15:14:48.384Z,1011.30
2018-03-22T15:16:15.733Z,1011.26
2018-03-22T15:17:42.896Z,1011.23
2018-03-22T15:19:09.970Z,1011.24
2018-03-22T15:20:37.133Z,1011.25
2018-03-22T15:22:04.513Z,1011.29
2018-03-22T15:23:31.651Z,1011.27
2018-03-22T15:24:58.828Z,1011.30
2018-03-22T15:26:26.106Z,1011.27
2018-03-22T15:27:53.410Z,1011.28
2018-03-22T15:29:20.574Z,1011.27
2018-03-22T15:30:47.975Z,1011.33
2018-03-22T15:32:14.994Z,1011.34
2018-03-22T15:33:42.275Z,1011.36
2018-03-22T15:35:09.289Z,1011.38
2018-03-22T15:36:36.452Z,1011.41
2018-03-22T15:38:03.725Z,1011.39
2018-03-22T15:39:31.072Z,1011.44
2018-03-22T15:40:58.213Z,1011.44
2018-03-22T15:42:25.370Z,1011.44
2018-03-22T15:43:52.758Z,1011.48
2018-03-22T15:45:19.673Z,1011.47
2018-03-22T15:46:46.898Z,1011.47
2018-03-22T15:48:14.030Z,1011.49
2018-03-22T15:49:41.113Z,1011.48
2018-03-22T15:51:08.185Z,1011.47
2018-03-22T15:52:35.636Z,1011.47
2018-03-22T15:54:02.645Z,1011.48
2018-03-22T15:55:30.031Z,1011.50
2018-03-22T15:56:57.267Z,1011.50
2018-03-22T15:58:24.339Z,1011.50
2018-03-22T15:59:51.485Z,1011.47
2018-03-22T16:01:18.599Z,1011.48
2018-03-22T16:02:45.684Z,1011.54
2018-03-22T16:04:12.907Z,1011.62
2018-03-22T16:05:39.860Z,1011.64
2018-03-22T16:07:07.108Z,1011.69
2018-03-22T16:08:34.275Z,1011.70
2018-03-22T16:10:01.482Z,1011.71
2018-03-22T16:11:28.620Z,1011.66
2018-03-22T16:12:55.933Z,1011.61
2018-03-22T16:14:23.219Z,1011.58
2018-03-22T16:15:50.403Z,1011.57
2018-03-22T16:17:17.664Z,1011.58
2018-03-22T16:18:44.925Z,1011.55
2018-03-22T16:20:12.041Z,1011.55
2018-03-22T16:21:39.236Z,1011.60
2018-03-22T16:23:06.532Z,1011.63
2018-03-22T16:24:33.858Z,1011.61
2018-03-22T16:26:01.117Z,1011.60
2018-03-22T16:27:28.328Z,1011.63
2018-03-22T16:28:55.499Z,1011.68
2018-03-22T16:30:22.609Z,1011.73
2018-03-22T16:31:49.782Z,1011.79
2018-03-22T16:33:16.976Z,1011.80
2018-03-22T16:34:44.162Z,1011.79
2018-03-22T16:36:11.041Z,1011.79
2018-03-22T16:37:38.414Z,1011.73
2018-03-22T16:39:05.623Z,1011.74
2018-03-22T16:40:32.756Z,1011.75
2018-03-22T16:42:00.077Z,1011.73
2018-03-22T16:43:27.292Z,1011.77
2018-03-22T16:44:54.660Z,1011.80
2018-03-22T16:46:21.837Z,1011.84
2018-03-22T16:47:49.069Z,1011.83
2018-03-22T16:49:16.137Z,1011.88
2018-03-22T16:50:43.228Z,1011.85
2018-03-22T16:52:10.375Z,1011.85
2018-03-22T16:53:37.747Z,1011.88
2018-03-22T16:55:04.960Z,1011.89
2018-03-22T16:56:32.151Z,1011.90
2018-03-22T16:57:59.232Z,1011.93
2018-03-22T16:59:26.550Z,1011.92
2018-03-22T17:00:53.728Z,1011.91
2018-03-22T17:02:20.811Z,1011.89
2018-03-22T17:03:48.002Z,1011.86
2018-03-22T17:05:15.170Z,1011.90
2018-03-22T17:06:42.354Z,1011.89
2018-03-22T17:08:09.430Z,1011.88
2018-03-22T17:09:36.709Z,1011.95
2018-03-22T17:11:03.972Z,1012.00
2018-03-22T17:12:31.154Z,1012.03
2018-03-22T17:13:58.441Z,1012.04
2018-03-22T17:15:25.446Z,1012.05
2018-03-22T17:16:52.613Z,1012.06
2018-03-22T17:18:19.902Z,1012.08
2018-03-22T17:19:47.136Z,1012.11
2018-03-22T17:21:14.239Z,1012.12
2018-03-22T17:22:41.369Z,1012.14
2018-03-22T17:24:08.457Z,1012.16
2018-03-22T17:25:35.784Z,1012.18
2018-03-22T17:27:02.947Z,1012.17
2018-03-22T17:28:29.956Z,1012.16
2018-03-22T17:29:57.149Z,1012.19
2018-03-22T17:31:24.412Z,1012.23
2018-03-22T17:32:51.771Z,1012.23
2018-03-22T17:34:18.844Z,1012.23